Morbach UL

DE-0394 · 巴登-符腾堡, 德国

罗盘
风向 的 风向 050° Morbach UL 9/27
风: 6 kt, 2 beaufort

4 kt

4 kt
改变
0 ft 2.000 4.000 6.000 8.000 10.000
Cloud Cloud
FEW 5.800
Cloud Cloud Cloud Cloud Cloud Cloud Cloud Cloud
OVC 6.800
METAR EDTY 220220Z AUTO 05006KT 9999 // FEW058/// OVC068/// 02/M01 Q1020

METAR Morbach UL - DE-0394

Morbach UL是,德国中的小机场。 该机场位于纬度49,03381和经度9,59124。 该机场有一条跑道: 9/27. 这个机场没有ICAO代码,我们使用DE-0394作为参考。 机场在Langen FIR中。

该航空气象观测是针对Adolf Würth Airport在2024年4月22日 04:20, 当地时间进行的。

机场观察

风向为050°,速度为6 kt。

可见度为10 km 或者更多。

有几云在5.800 ft的高度 和 乌云密布在6.800 ft的高度。 破损或更高的上限为6.800 ft。

温度为2 °C,阵风为-3 °C。 露点为-1 °C,相对湿度为81%。 海平面上的气压为1020 hPa (QNH)。

白天

今天,太阳从06:15升起,在20:24降落。 这适用于Morbach UL,世界夏令时可能有所不同。 当地时间与世界标准时间之间的时差为+2 小时。 夏令时目前正在进行中。

公司介绍

我们没有关于这个机场的公司信息。

体会

到Vliegles.nl去找飞行课程,跳伞和其他飞行体验。 浏览页面,了解Morbach UL附近所有可用的活动。 你也可以使用搜索功能来寻找你所在地附近的特定飞行课程、跳伞或其他飞行体验。

跑道

Id 标题 侧风 逆风 侧风 %
9/27 097°-277° 4 kt 4 kt 73 %

逆风成分最大的方向会被突出显示,并用于横风计算。 这并不一定意味着这个方向在使用。

乌云

5.800 ft FEW 几云
6.800 ft OVC 乌云密布

温度 & 天气

温度 2 °C
露点 -1 °C
相对湿度 81%
风寒 -3 °C
Kp-index 2 (0-9)

白天

日出
06:14 (1:43)
中午
13:19
日落
20:23

小工具

你想在你的网站上有一个关于Morbach UL的当前航空天气(METAR)的小部件吗?

显示HTML代码
报告变更